Time;durP1;ratioP1;P1;durP2;ratioP2;P2;SDS_P1;SDS_P2;PMS_P1;PMS_P2;Temp;Humidity;BMP_temperature;BMP_pressure;BME280_temperature;BME280_humidity;BME280_pressure;Samples;Min_cycle;Max_cycle;Signal;HPM_P1;HPM_P2
2022/03/09 00:00:45;;;;;;;3.95;2.50;;;15.30;53.80;;;;;;4057835;29;20080;-65
2022/03/09 00:03:08;;;;;;;2.95;2.65;;;15.30;53.60;;;;;;4047326;29;20056;-65
2022/03/09 00:05:30;;;;;;;3.65;2.55;;;15.30;53.90;;;;;;4048473;29;20056;-66
2022/03/09 00:07:54;;;;;;;3.45;2.55;;;15.20;54.00;;;;;;4048256;29;20460;-66
2022/03/09 00:10:17;;;;;;;2.53;2.33;;;15.20;54.10;;;;;;4048994;29;20054;-66
2022/03/09 00:12:40;;;;;;;2.40;2.30;;;15.20;54.10;;;;;;4059763;29;20044;-66
2022/03/09 00:15:02;;;;;;;3.53;2.65;;;15.20;55.00;;;;;;4061764;29;20826;-66
2022/03/09 00:17:24;;;;;;;2.85;2.63;;;15.20;54.30;;;;;;4063507;29;20467;-66
2022/03/09 00:19:46;;;;;;;3.47;2.97;;;15.10;54.30;;;;;;4063706;29;20063;-66
2022/03/09 00:22:08;;;;;;;3.30;2.72;;;15.10;54.30;;;;;;4048306;29;20135;-66
2022/03/09 00:24:32;;;;;;;2.85;2.60;;;15.10;54.30;;;;;;4055059;29;20086;-66
2022/03/09 00:26:55;;;;;;;3.17;2.60;;;15.10;54.40;;;;;;4063955;29;20471;-66
2022/03/09 00:29:18;;;;;;;2.83;2.30;;;15.10;54.80;;;;;;4063611;29;20520;-65
2022/03/09 00:31:40;;;;;;;2.83;2.47;;;15.10;55.50;;;;;;4050696;29;20168;-65
2022/03/09 00:34:02;;;;;;;2.88;2.40;;;15.20;55.90;;;;;;4047790;29;20123;-65
2022/03/09 00:36:26;;;;;;;3.85;2.63;;;15.20;56.00;;;;;;4053965;29;20063;-66
2022/03/09 00:38:48;;;;;;;3.58;2.92;;;15.30;56.00;;;;;;4052398;29;20048;-66
2022/03/09 00:41:12;;;;;;;3.35;3.05;;;15.30;55.80;;;;;;4047853;29;20060;-65
2022/03/09 00:43:35;;;;;;;3.97;2.95;;;15.40;56.40;;;;;;4048073;29;20052;-66
2022/03/09 00:45:57;;;;;;;3.47;2.55;;;15.40;55.70;;;;;;4048355;29;20076;-67
2022/03/09 00:48:20;;;;;;;4.38;2.80;;;15.40;55.50;;;;;;4048416;29;20083;-65
2022/03/09 00:50:42;;;;;;;3.35;3.00;;;15.40;55.40;;;;;;4063473;29;20070;-66
2022/03/09 00:53:04;;;;;;;3.42;3.13;;;15.40;55.40;;;;;;4063534;29;20052;-66
2022/03/09 00:55:26;;;;;;;4.97;2.90;;;15.40;55.40;;;;;;4062117;29;20103;-66
2022/03/09 00:57:50;;;;;;;4.88;2.78;;;15.40;55.20;;;;;;4063219;29;20095;-67
2022/03/09 01:00:13;;;;;;;3.10;2.90;;;15.40;54.80;;;;;;4063134;29;20052;-66
2022/03/09 01:02:40;;;;;;;3.42;2.65;;;15.30;54.60;;;;;;4063287;29;20499;-67
2022/03/09 01:05:03;;;;;;;3.17;2.97;;;15.30;54.50;;;;;;4055288;29;20100;-66
2022/03/09 01:07:24;;;;;;;3.22;2.83;;;15.30;54.70;;;;;;4061107;29;20052;-66
2022/03/09 01:09:46;;;;;;;4.38;3.15;;;15.20;54.80;;;;;;4059801;29;20443;-67
2022/03/09 01:12:09;;;;;;;4.28;3.78;;;15.20;55.00;;;;;;4060741;29;20055;-67
2022/03/09 01:14:33;;;;;;;2.92;2.70;;;15.30;55.90;;;;;;4057875;29;20159;-65
2022/03/09 01:16:55;;;;;;;4.40;3.10;;;15.30;56.20;;;;;;4047286;29;20508;-66
2022/03/09 01:19:17;;;;;;;3.63;3.08;;;15.40;56.20;;;;;;4047423;29;20053;-65
2022/03/09 01:21:39;;;;;;;3.65;3.00;;;15.40;56.20;;;;;;4047372;29;20052;-66
2022/03/09 01:24:02;;;;;;;3.90;3.45;;;15.50;56.00;;;;;;4048655;29;20055;-66
2022/03/09 01:26:23;;;;;;;7.05;3.10;;;15.50;55.90;;;;;;4062876;29;20395;-65
2022/03/09 01:28:45;;;;;;;3.75;3.28;;;15.50;55.70;;;;;;4062090;29;20068;-65
2022/03/09 01:31:09;;;;;;;6.00;3.45;;;15.50;55.60;;;;;;4048171;29;20112;-66
2022/03/09 01:33:31;;;;;;;4.68;3.33;;;15.50;55.60;;;;;;4047376;29;20494;-66
2022/03/09 01:35:53;;;;;;;3.65;3.35;;;15.50;55.60;;;;;;4063131;29;20513;-66
2022/03/09 01:38:15;;;;;;;3.95;3.13;;;15.50;55.80;;;;;;4062996;29;20048;-66
2022/03/09 01:40:37;;;;;;;3.70;3.40;;;15.50;55.90;;;;;;4063041;29;20050;-66
2022/03/09 01:43:00;;;;;;;3.92;3.22;;;15.50;55.70;;;;;;4047626;29;20080;-66
2022/03/09 01:45:22;;;;;;;3.85;3.55;;;15.60;55.80;;;;;;4033241;29;20066;-66
2022/03/09 01:47:49;;;;;;;4.03;3.55;;;15.60;56.50;;;;;;4049104;29;20067;-66
2022/03/09 01:50:12;;;;;;;6.07;4.03;;;15.60;55.70;;;;;;4054608;29;20071;-65
2022/03/09 01:52:34;;;;;;;3.40;3.10;;;15.70;55.70;;;;;;4051877;29;20056;-66
2022/03/09 01:54:57;;;;;;;4.97;3.50;;;15.70;55.60;;;;;;4057814;29;20059;-66
2022/03/09 01:57:19;;;;;;;3.72;3.42;;;15.70;55.60;;;;;;4050142;29;20064;-65
2022/03/09 01:59:42;;;;;;;4.00;3.60;;;15.80;55.60;;;;;;4050808;29;20052;-65
2022/03/09 02:02:04;;;;;;;3.75;3.33;;;15.80;55.50;;;;;;4049156;29;20052;-66
2022/03/09 02:04:28;;;;;;;3.95;3.33;;;15.90;55.60;;;;;;4051008;29;20491;-65
2022/03/09 02:06:53;;;;;;;4.07;3.75;;;16.00;55.30;;;;;;4065756;29;20052;-65
2022/03/09 02:11:56;;;;;;;6.70;4.25;;;16.20;54.60;;;;;;4056332;29;20047;-66
2022/03/09 02:14:32;;;;;;;3.95;3.60;;;16.20;54.40;;;;;;4063955;29;20131;-65
2022/03/09 02:16:56;;;;;;;5.13;3.75;;;16.30;54.20;;;;;;4050785;29;20075;-65
2022/03/09 02:19:18;;;;;;;5.57;4.25;;;16.30;54.20;;;;;;4059921;29;20490;-66
2022/03/09 02:21:42;;;;;;;4.43;4.03;;;16.30;54.20;;;;;;4064836;29;20048;-65
2022/03/09 02:24:06;;;;;;;6.03;3.72;;;16.30;54.30;;;;;;4064995;29;20076;-66
2022/03/09 02:26:29;;;;;;;4.13;3.72;;;16.20;54.20;;;;;;4064207;29;20063;-65
2022/03/09 02:28:51;;;;;;;4.70;4.30;;;16.20;54.30;;;;;;4065296;29;20151;-65
2022/03/09 02:31:13;;;;;;;4.95;3.80;;;16.20;54.30;;;;;;4065304;29;20055;-67
2022/03/09 02:33:35;;;;;;;6.47;3.75;;;16.10;55.00;;;;;;4055888;29;20056;-65
2022/03/09 02:36:00;;;;;;;6.00;4.55;;;16.10;54.40;;;;;;4064676;29;20108;-65
2022/03/09 02:38:23;;;;;;;5.40;3.67;;;16.00;54.50;;;;;;4065103;29;20071;-65
2022/03/09 02:40:47;;;;;;;5.53;4.53;;;16.00;54.70;;;;;;4056191;29;20055;-65
2022/03/09 02:43:09;;;;;;;4.85;4.38;;;15.90;55.00;;;;;;4047894;29;20163;-64
2022/03/09 02:45:32;;;;;;;4.45;4.03;;;15.90;55.20;;;;;;4065124;29;20144;-65
2022/03/09 02:47:54;;;;;;;4.47;4.00;;;16.00;55.10;;;;;;4065102;29;20545;-67
2022/03/09 02:50:17;;;;;;;5.38;4.40;;;16.00;54.90;;;;;;4063837;29;20067;-65
2022/03/09 02:52:40;;;;;;;4.90;4.28;;;16.10;54.70;;;;;;4064184;29;20143;-66
2022/03/09 02:55:03;;;;;;;5.13;4.63;;;16.10;54.60;;;;;;4035777;29;20065;-65
2022/03/09 02:57:26;;;;;;;5.57;4.20;;;16.10;54.50;;;;;;4056059;29;20060;-65
2022/03/09 02:59:49;;;;;;;4.22;3.83;;;16.10;54.50;;;;;;4064951;29;20056;-65
2022/03/09 03:02:13;;;;;;;4.57;4.20;;;16.20;54.50;;;;;;4064981;29;20052;-66
2022/03/09 03:04:37;;;;;;;6.13;4.80;;;16.20;54.40;;;;;;4051637;29;20048;-67
2022/03/09 03:06:59;;;;;;;5.63;4.47;;;16.20;54.40;;;;;;4062298;29;20052;-66
2022/03/09 03:09:21;;;;;;;5.95;4.60;;;16.20;54.40;;;;;;4064736;29;20051;-66
2022/03/09 03:11:43;;;;;;;5.03;4.07;;;16.10;54.40;;;;;;4064959;29;20115;-66
2022/03/09 03:14:07;;;;;;;6.82;4.15;;;16.10;54.40;;;;;;4055434;29;20443;-67
2022/03/09 03:16:29;;;;;;;4.97;4.47;;;16.10;54.50;;;;;;4051907;29;20735;-67
2022/03/09 03:18:51;;;;;;;5.43;4.55;;;16.00;54.60;;;;;;4061510;29;20048;-68
2022/03/09 03:21:13;;;;;;;4.22;3.88;;;16.00;54.80;;;;;;4061778;29;20068;-66
2022/03/09 03:23:36;;;;;;;5.55;4.07;;;16.00;55.00;;;;;;4062119;29;20407;-66
2022/03/09 03:25:59;;;;;;;5.40;4.70;;;16.00;54.90;;;;;;4063042;29;20111;-66
2022/03/09 03:28:23;;;;;;;5.90;4.72;;;16.10;54.70;;;;;;4064370;29;20080;-66
2022/03/09 03:30:47;;;;;;;7.57;5.35;;;16.10;54.60;;;;;;4055695;29;20083;-66
2022/03/09 03:33:09;;;;;;;6.50;4.32;;;16.20;54.50;;;;;;4063905;29;20050;-66
2022/03/09 03:35:32;;;;;;;5.00;4.50;;;16.20;54.40;;;;;;4064860;29;20099;-66
2022/03/09 03:37:54;;;;;;;5.30;4.20;;;16.30;54.30;;;;;;4064538;29;20107;-66
2022/03/09 03:40:17;;;;;;;6.60;4.57;;;16.40;54.00;;;;;;4062971;29;20080;-66
2022/03/09 03:42:39;;;;;;;5.75;4.50;;;16.50;53.90;;;;;;4049870;29;20056;-66
2022/03/09 03:45:01;;;;;;;5.63;4.40;;;16.50;53.70;;;;;;4034668;29;20453;-66
2022/03/09 03:47:25;;;;;;;5.38;4.63;;;16.50;53.60;;;;;;4048573;29;20128;-66
2022/03/09 03:49:50;;;;;;;4.95;4.13;;;16.50;53.50;;;;;;4048594;29;20143;-66
2022/03/09 03:52:12;;;;;;;6.53;4.88;;;16.50;53.50;;;;;;4034282;29;20056;-66
2022/03/09 03:54:34;;;;;;;5.28;4.53;;;16.50;53.60;;;;;;4061879;29;20127;-66
2022/03/09 03:56:56;;;;;;;6.82;4.43;;;16.50;53.60;;;;;;4062533;29;20048;-66
2022/03/09 03:59:18;;;;;;;5.78;4.75;;;16.50;53.50;;;;;;4062456;29;20082;-66
2022/03/09 04:01:40;;;;;;;4.85;4.45;;;16.50;53.50;;;;;;4062517;29;20059;-66
2022/03/09 04:04:04;;;;;;;5.15;4.55;;;16.50;53.60;;;;;;4062818;29;20060;-66
2022/03/09 04:06:26;;;;;;;5.28;4.78;;;16.40;54.40;;;;;;4063683;29;20464;-66
2022/03/09 04:08:48;;;;;;;4.90;4.40;;;16.40;53.80;;;;;;4063785;29;20055;-66
2022/03/09 04:11:10;;;;;;;5.88;4.60;;;16.40;53.80;;;;;;4048454;29;20056;-66
2022/03/09 04:13:32;;;;;;;5.03;4.55;;;16.40;53.70;;;;;;4052488;29;20391;-66
2022/03/09 04:15:57;;;;;;;4.82;4.32;;;16.40;53.70;;;;;;4063203;29;20498;-66
2022/03/09 04:18:20;;;;;;;6.15;4.70;;;16.40;53.60;;;;;;4063154;29;20062;-66
2022/03/09 04:20:44;;;;;;;5.25;4.72;;;16.40;53.60;;;;;;4063851;29;20048;-65
2022/03/09 04:23:08;;;;;;;4.47;4.07;;;16.40;53.70;;;;;;4059016;29;20057;-65
2022/03/09 04:25:31;;;;;;;4.95;4.18;;;16.40;53.80;;;;;;4047899;29;20079;-66
2022/03/09 04:27:53;;;;;;;5.13;4.40;;;16.40;53.80;;;;;;4034026;29;20106;-66
2022/03/09 04:30:15;;;;;;;5.30;4.80;;;16.40;53.70;;;;;;4048110;29;20510;-65
2022/03/09 04:32:37;;;;;;;6.85;4.82;;;16.40;53.80;;;;;;4062152;29;20049;-66
2022/03/09 04:35:03;;;;;;;6.45;5.13;;;16.30;53.80;;;;;;4063158;29;20055;-65
2022/03/09 04:37:30;;;;;;;5.53;4.97;;;16.30;53.80;;;;;;4063404;29;20063;-66
2022/03/09 04:39:53;;;;;;;5.60;5.10;;;16.30;53.90;;;;;;4063550;29;20058;-66
2022/03/09 04:42:15;;;;;;;5.38;4.88;;;16.30;54.00;;;;;;4063324;29;20071;-65
2022/03/09 04:44:38;;;;;;;6.47;4.85;;;16.30;53.90;;;;;;4047983;29;20052;-65
2022/03/09 04:47:00;;;;;;;6.40;5.20;;;16.20;53.90;;;;;;4033716;29;20085;-65
2022/03/09 04:49:23;;;;;;;8.65;5.55;;;16.20;54.00;;;;;;4047089;29;20072;-65
2022/03/09 04:51:48;;;;;;;5.18;4.68;;;16.20;54.10;;;;;;4054627;29;20071;-67
2022/03/09 04:54:11;;;;;;;7.72;5.13;;;16.20;54.00;;;;;;4062680;29;20471;-65
2022/03/09 04:56:33;;;;;;;6.00;5.25;;;16.20;54.00;;;;;;4063371;29;20139;-66
2022/03/09 04:58:56;;;;;;;7.20;4.95;;;16.20;54.00;;;;;;4063402;29;20071;-66
2022/03/09 05:01:18;;;;;;;6.07;4.97;;;16.20;54.00;;;;;;4062666;29;20099;-67
2022/03/09 05:03:41;;;;;;;5.20;4.55;;;16.20;54.80;;;;;;4047740;29;20060;-66
2022/03/09 05:06:03;;;;;;;6.88;5.32;;;16.10;54.10;;;;;;4047891;29;20064;-66
2022/03/09 05:08:27;;;;;;;5.30;4.80;;;16.10;54.20;;;;;;4047319;29;20048;-66
2022/03/09 05:10:50;;;;;;;7.32;5.10;;;16.10;54.20;;;;;;4045979;29;20044;-60
2022/03/09 05:13:14;;;;;;;6.72;5.07;;;16.10;54.20;;;;;;4063045;29;20063;-60
2022/03/09 05:15:36;;;;;;;10.23;4.63;;;16.10;54.20;;;;;;4063241;29;20048;-59
2022/03/09 05:17:58;;;;;;;5.50;4.95;;;16.00;54.20;;;;;;4063010;29;20407;-60
2022/03/09 05:20:21;;;;;;;5.47;4.93;;;16.00;54.40;;;;;;4056150;29;20112;-60
2022/03/09 05:22:44;;;;;;;7.10;5.40;;;16.00;54.50;;;;;;4061920;29;20138;-61
2022/03/09 05:25:07;;;;;;;5.28;4.78;;;16.10;54.30;;;;;;4048650;29;20057;-60
2022/03/09 05:27:32;;;;;;;6.90;4.97;;;16.30;54.10;;;;;;4063263;29;20055;-59
2022/03/09 05:29:55;;;;;;;6.40;4.65;;;16.30;53.70;;;;;;4057051;29;20053;-60
2022/03/09 05:32:17;;;;;;;6.38;5.00;;;16.40;53.40;;;;;;4046560;29;20078;-60
2022/03/09 05:34:39;;;;;;;5.43;4.90;;;16.40;53.40;;;;;;4047830;29;20045;-61
2022/03/09 05:37:01;;;;;;;5.60;5.10;;;16.40;53.30;;;;;;4062225;29;20139;-61
2022/03/09 05:39:23;;;;;;;5.22;4.72;;;16.40;53.20;;;;;;4043256;29;20055;-60
2022/03/09 05:41:47;;;;;;;6.25;5.43;;;16.50;53.20;;;;;;4049911;29;20062;-60
2022/03/09 05:44:10;;;;;;;8.38;4.80;;;16.50;53.20;;;;;;4059705;29;20164;-60
2022/03/09 05:46:33;;;;;;;8.15;5.22;;;16.50;53.60;;;;;;4062579;29;20486;-60
2022/03/09 05:48:55;;;;;;;7.22;5.30;;;16.50;52.90;;;;;;4047294;29;20140;-60
2022/03/09 05:51:17;;;;;;;5.95;5.32;;;16.50;52.90;;;;;;4047751;29;20052;-60
2022/03/09 05:53:39;;;;;;;6.80;4.95;;;16.50;52.90;;;;;;4047176;29;20089;-60
2022/03/09 05:56:02;;;;;;;5.95;5.32;;;16.50;52.90;;;;;;4047556;29;20778;-60
2022/03/09 05:58:25;;;;;;;5.70;4.75;;;16.50;52.90;;;;;;4046806;29;20464;-61
2022/03/09 06:00:48;;;;;;;6.10;5.10;;;16.50;53.00;;;;;;4047228;29;20080;-60
2022/03/09 06:03:10;;;;;;;8.02;5.80;;;16.50;53.10;;;;;;4047053;29;20049;-60
2022/03/09 06:05:33;;;;;;;8.07;5.25;;;16.40;53.20;;;;;;4047117;29;20542;-60
2022/03/09 06:07:55;;;;;;;7.65;6.07;;;16.50;53.20;;;;;;4049672;29;20058;-60
2022/03/09 06:10:17;;;;;;;6.13;5.53;;;16.60;53.10;;;;;;4058108;29;20062;-60
2022/03/09 06:12:39;;;;;;;11.02;6.03;;;16.60;52.90;;;;;;4062436;29;20414;-60
2022/03/09 06:15:01;;;;;;;7.57;5.35;;;16.70;52.70;;;;;;4062645;29;20068;-60
2022/03/09 06:17:28;;;;;;;7.78;5.40;;;16.80;52.50;;;;;;4062634;29;20100;-60
2022/03/09 06:19:50;;;;;;;8.45;5.78;;;16.80;52.40;;;;;;4061886;29;20155;-61
2022/03/09 06:22:12;;;;;;;6.57;5.53;;;16.80;52.30;;;;;;4062472;29;20055;-60
2022/03/09 06:24:34;;;;;;;7.82;5.30;;;16.80;52.30;;;;;;4059565;29;20512;-60
2022/03/09 06:26:56;;;;;;;10.40;6.10;;;16.80;52.30;;;;;;4039869;29;20076;-60
2022/03/09 06:29:18;;;;;;;6.47;5.15;;;16.80;52.30;;;;;;4059983;29;20060;-60
2022/03/09 06:31:42;;;;;;;6.60;5.75;;;16.70;52.40;;;;;;4047042;29;20135;-60
2022/03/09 06:34:06;;;;;;;6.10;5.50;;;16.70;53.20;;;;;;4048883;29;20432;-60
2022/03/09 06:36:29;;;;;;;5.47;4.97;;;16.60;52.60;;;;;;4050514;29;20436;-60
2022/03/09 06:38:54;;;;;;;8.90;5.93;;;16.60;52.80;;;;;;4052340;29;20100;-61
2022/03/09 06:41:17;;;;;;;8.13;5.88;;;16.50;52.90;;;;;;4064029;29;20052;-61
2022/03/09 06:43:39;;;;;;;7.68;5.82;;;16.50;53.00;;;;;;4065590;29;20495;-63
2022/03/09 06:46:02;;;;;;;7.07;4.95;;;16.50;53.10;;;;;;4064839;29;20056;-60
2022/03/09 06:48:25;;;;;;;6.93;6.22;;;16.50;53.30;;;;;;4049677;29;20144;-66
2022/03/09 06:50:48;;;;;;;8.45;5.63;;;16.60;53.40;;;;;;4074550;29;20069;-67
2022/03/09 06:53:11;;;;;;;6.55;5.57;;;16.60;53.10;;;;;;4063893;29;20145;-67
2022/03/09 06:55:33;;;;;;;9.65;5.93;;;16.60;52.90;;;;;;4080233;29;20434;-67
2022/03/09 06:57:55;;;;;;;7.60;5.18;;;16.70;53.00;;;;;;4071544;29;20491;-67
2022/03/09 07:00:18;;;;;;;6.68;5.07;;;16.70;53.10;;;;;;4049351;29;20055;-67
2022/03/09 07:02:41;;;;;;;5.90;5.20;;;16.70;53.20;;;;;;4049004;29;20041;-68
2022/03/09 07:05:04;;;;;;;9.10;5.47;;;16.70;53.00;;;;;;4060300;29;20414;-66
2022/03/09 07:07:32;;;;;;;7.35;5.65;;;16.80;52.80;;;;;;4064456;29;20107;-66
2022/03/09 07:09:54;;;;;;;6.35;5.60;;;16.80;52.30;;;;;;4049141;29;20048;-66
2022/03/09 07:12:17;;;;;;;6.22;5.63;;;16.90;52.30;;;;;;4048622;29;20060;-66
2022/03/09 07:14:40;;;;;;;7.63;5.97;;;16.90;52.50;;;;;;4049182;29;20060;-67
2022/03/09 07:17:03;;;;;;;8.25;6.05;;;16.80;52.50;;;;;;4047862;29;20133;-65
2022/03/09 07:19:25;;;;;;;8.35;5.63;;;16.80;53.40;;;;;;4061859;29;20101;-60
2022/03/09 07:21:48;;;;;;;7.88;6.00;;;16.80;54.50;;;;;;4048952;29;20053;-60
2022/03/09 07:24:12;;;;;;;11.10;6.70;;;16.80;54.60;;;;;;4047298;29;20060;-60
2022/03/09 07:26:34;;;;;;;9.63;6.07;;;16.70;54.20;;;;;;4064273;29;20502;-60
2022/03/09 07:28:56;;;;;;;7.78;5.85;;;16.70;53.90;;;;;;4063612;29;20055;-59
2022/03/09 07:31:18;;;;;;;7.43;5.38;;;16.70;53.70;;;;;;4061544;29;20483;-59
2022/03/09 07:33:41;;;;;;;7.10;5.80;;;16.60;53.40;;;;;;4063429;29;20052;-60
2022/03/09 07:36:03;;;;;;;15.85;5.72;;;16.50;53.20;;;;;;4056904;29;20112;-60
2022/03/09 07:38:26;;;;;;;9.73;5.63;;;16.40;53.00;;;;;;4053944;29;20467;-60
2022/03/09 07:40:49;;;;;;;9.55;6.22;;;16.30;53.00;;;;;;4050211;29;20052;-60
2022/03/09 07:43:12;;;;;;;7.32;5.85;;;16.20;52.90;;;;;;4064255;29;20055;-60
2022/03/09 07:45:35;;;;;;;10.43;6.00;;;16.10;52.90;;;;;;4063283;29;20047;-60
2022/03/09 07:47:57;;;;;;;8.73;6.65;;;16.10;53.00;;;;;;4064099;29;20063;-60
2022/03/09 07:50:19;;;;;;;8.02;5.72;;;16.00;52.90;;;;;;4049915;29;20112;-60
2022/03/09 07:52:42;;;;;;;8.20;5.57;;;16.00;52.80;;;;;;4064036;29;20052;-61
2022/03/09 07:55:04;;;;;;;8.65;6.18;;;15.90;52.70;;;;;;4063951;29;20120;-60
2022/03/09 07:57:28;;;;;;;9.68;5.88;;;15.90;52.50;;;;;;4063586;29;20482;-60
2022/03/09 07:59:50;;;;;;;6.40;5.68;;;15.90;52.20;;;;;;4054510;29;20103;-60
2022/03/09 08:02:12;;;;;;;6.72;5.70;;;15.80;52.10;;;;;;4063010;29;20419;-60
2022/03/09 08:04:35;;;;;;;8.38;5.43;;;15.80;52.20;;;;;;4063658;29;20075;-60
2022/03/09 08:06:57;;;;;;;7.63;5.85;;;15.70;52.00;;;;;;4059617;29;20053;-60
2022/03/09 08:09:21;;;;;;;6.15;5.55;;;15.70;51.40;;;;;;4064285;29;20047;-59
2022/03/09 08:11:43;;;;;;;6.97;6.28;;;15.70;51.40;;;;;;4079456;29;20055;-59
2022/03/09 08:14:07;;;;;;;7.55;6.15;;;15.60;51.10;;;;;;4051559;29;20184;-59
2022/03/09 08:16:29;;;;;;;7.53;6.35;;;15.60;51.10;;;;;;4064309;29;20044;-59
2022/03/09 08:18:51;;;;;;;8.32;6.45;;;15.60;50.60;;;;;;4057211;29;20059;-59
2022/03/09 08:21:13;;;;;;;10.32;5.85;;;15.50;50.60;;;;;;4057090;29;20052;-59
2022/03/09 08:23:35;;;;;;;8.43;6.07;;;15.50;50.60;;;;;;4057657;29;20514;-65
2022/03/09 08:25:58;;;;;;;6.80;5.75;;;15.50;50.60;;;;;;4049360;29;20538;-65
2022/03/09 08:28:20;;;;;;;7.43;6.15;;;15.40;50.30;;;;;;4062639;29;20072;-65
2022/03/09 08:30:45;;;;;;;8.73;5.65;;;15.40;50.70;;;;;;4063415;29;20078;-58
2022/03/09 08:33:08;;;;;;;8.75;6.13;;;15.40;50.90;;;;;;4063195;29;22173;-59
2022/03/09 08:35:31;;;;;;;7.80;6.00;;;15.30;51.10;;;;;;4050834;29;20503;-59
2022/03/09 08:37:53;;;;;;;6.93;6.15;;;15.30;51.10;;;;;;4061017;29;20100;-59
2022/03/09 08:40:16;;;;;;;7.38;5.82;;;15.30;51.80;;;;;;4058635;29;20072;-60
2022/03/09 08:42:38;;;;;;;5.97;5.15;;;15.30;52.30;;;;;;4063382;29;20070;-60
2022/03/09 08:45:02;;;;;;;7.72;5.80;;;15.30;52.00;;;;;;4046844;29;20071;-59
2022/03/09 08:47:26;;;;;;;9.45;6.20;;;15.20;51.80;;;;;;4062592;29;20557;-59
2022/03/09 08:49:48;;;;;;;7.55;6.05;;;15.20;50.10;;;;;;4059681;29;20455;-59
2022/03/09 08:52:13;;;;;;;7.38;6.30;;;15.20;51.10;;;;;;4060748;29;20074;-59
2022/03/09 08:54:36;;;;;;;7.53;5.95;;;15.10;52.00;;;;;;4054270;29;20059;-61
2022/03/09 08:56:58;;;;;;;8.45;6.18;;;15.00;52.00;;;;;;4047988;29;20075;-60
2022/03/09 08:59:21;;;;;;;12.25;6.57;;;15.00;52.10;;;;;;4047891;29;20052;-58
2022/03/09 09:01:44;;;;;;;9.82;7.00;;;15.00;53.30;;;;;;4046625;29;20052;-64
2022/03/09 09:04:10;;;;;;;7.35;6.07;;;15.00;53.90;;;;;;4047575;29;20513;-60
2022/03/09 09:06:32;;;;;;;10.80;6.28;;;15.00;53.80;;;;;;4047601;29;20068;-61
2022/03/09 09:08:54;;;;;;;9.15;5.88;;;15.00;53.30;;;;;;4047717;29;20048;-60
2022/03/09 09:11:17;;;;;;;7.25;6.50;;;15.00;53.10;;;;;;4045888;29;20414;-61
2022/03/09 09:13:40;;;;;;;8.90;6.03;;;15.00;53.10;;;;;;4061488;29;20185;-61
2022/03/09 09:16:02;;;;;;;6.95;6.13;;;15.00;52.50;;;;;;4056289;29;20131;-61
2022/03/09 09:18:25;;;;;;;8.23;5.60;;;15.00;52.60;;;;;;4062959;29;20498;-60
2022/03/09 09:20:49;;;;;;;7.55;5.47;;;15.00;53.00;;;;;;4062615;29;20048;-61
2022/03/09 09:23:12;;;;;;;8.95;6.25;;;15.00;52.70;;;;;;4039132;29;20128;-61
2022/03/09 09:25:34;;;;;;;11.02;6.05;;;15.00;52.90;;;;;;4053886;29;20436;-61
2022/03/09 09:27:58;;;;;;;8.52;6.10;;;15.00;52.70;;;;;;4047077;29;20519;-61
2022/03/09 09:30:21;;;;;;;9.00;6.43;;;15.10;52.20;;;;;;4046999;29;20044;-60
2022/03/09 09:32:44;;;;;;;8.05;6.03;;;15.00;53.00;;;;;;4048397;29;20051;-61
2022/03/09 09:35:07;;;;;;;8.07;5.63;;;15.10;52.30;;;;;;4047204;29;20067;-62
2022/03/09 09:37:30;;;;;;;8.27;5.63;;;15.10;52.10;;;;;;4047111;29;20459;-61
2022/03/09 09:39:53;;;;;;;9.68;6.20;;;15.20;52.00;;;;;;4047240;29;20478;-61
2022/03/09 09:42:16;;;;;;;11.25;6.65;;;15.10;51.00;;;;;;4048474;29;20443;-61
2022/03/09 09:45:00;;;;;;;8.48;5.90;;;15.20;50.90;;;;;;4045958;29;20049;-61
2022/03/09 09:47:24;;;;;;;9.10;6.15;;;15.20;50.70;;;;;;4046746;29;20044;-63
2022/03/09 09:49:48;;;;;;;7.53;5.78;;;15.20;51.00;;;;;;4046925;29;20055;-63
2022/03/09 09:52:11;;;;;;;7.05;6.35;;;15.20;51.50;;;;;;4049147;29;20566;-64
2022/03/09 09:54:35;;;;;;;8.27;6.22;;;15.20;51.30;;;;;;4062475;29;20052;-63
2022/03/09 09:56:57;;;;;;;6.22;5.50;;;15.20;52.30;;;;;;4062621;29;20044;-64
2022/03/09 09:59:19;;;;;;;9.88;6.03;;;15.30;53.30;;;;;;4055876;29;20444;-64
2022/03/09 10:01:42;;;;;;;7.72;6.00;;;15.50;53.40;;;;;;4047249;29;20065;-63
2022/03/09 10:04:05;;;;;;;7.18;6.43;;;15.50;53.20;;;;;;4047149;29;20079;-64
2022/03/09 10:06:27;;;;;;;7.30;6.13;;;15.60;53.10;;;;;;4047122;29;20056;-64
2022/03/09 10:09:01;;;;;;;8.75;5.78;;;15.70;52.80;;;;;;4048820;29;20052;-64
2022/03/09 10:11:25;;;;;;;10.13;6.10;;;15.80;52.50;;;;;;4049871;29;20056;-64
2022/03/09 10:13:48;;;;;;;8.63;6.45;;;15.80;53.30;;;;;;4049867;29;20060;-64
2022/03/09 10:16:18;;;;;;;7.25;6.07;;;15.90;52.60;;;;;;4059532;29;20079;-64
2022/03/09 10:18:48;;;;;;;9.63;6.13;;;15.90;52.30;;;;;;4051600;29;20068;-64
2022/03/09 10:21:12;;;;;;;9.15;5.80;;;15.90;52.20;;;;;;4065633;29;20463;-64
2022/03/09 10:23:35;;;;;;;6.25;5.65;;;15.90;52.10;;;;;;4064473;29;20048;-65
2022/03/09 10:26:01;;;;;;;6.72;6.03;;;15.90;51.90;;;;;;4065705;29;20139;-64
2022/03/09 10:28:25;;;;;;;7.13;5.72;;;15.90;51.50;;;;;;4065303;29;20071;-65
2022/03/09 10:30:47;;;;;;;7.93;6.00;;;15.90;51.20;;;;;;4046050;29;20108;-65
2022/03/09 10:33:11;;;;;;;11.30;6.72;;;15.90;51.60;;;;;;4064028;29;20127;-65
2022/03/09 10:35:41;;;;;;;9.10;6.30;;;15.90;50.70;;;;;;4062193;29;20050;-65
2022/03/09 10:38:07;;;;;;;8.75;6.63;;;15.80;50.10;;;;;;4080784;29;20054;-63
2022/03/09 10:40:31;;;;;;;8.95;6.53;;;15.80;50.00;;;;;;4050435;29;20052;-63
2022/03/09 10:43:10;;;;;;;7.43;6.00;;;15.80;50.10;;;;;;4057067;29;20588;-64
2022/03/09 10:45:34;;;;;;;8.88;6.78;;;15.70;49.70;;;;;;4049647;29;20060;-63
2022/03/09 10:47:57;;;;;;;13.40;7.30;;;15.70;49.90;;;;;;4048963;29;20060;-65
2022/03/09 10:50:21;;;;;;;9.85;7.00;;;15.70;50.50;;;;;;4058147;29;20063;-65
2022/03/09 10:52:46;;;;;;;8.60;7.60;;;15.60;50.20;;;;;;4065028;29;20075;-65
2022/03/09 10:55:21;;;;;;;7.97;6.40;;;15.60;50.50;;;;;;4051177;29;20419;-65
2022/03/09 10:57:43;;;;;;;10.35;6.95;;;15.60;50.20;;;;;;4064900;29;20044;-65
2022/03/09 11:00:07;;;;;;;10.57;6.93;;;15.60;50.20;;;;;;4064945;29;20080;-64
2022/03/09 11:02:34;;;;;;;8.35;6.32;;;15.60;50.90;;;;;;4049100;29;20135;-65
2022/03/09 11:05:10;;;;;;;7.38;6.22;;;15.60;50.00;;;;;;4064393;29;20060;-65
2022/03/09 11:07:33;;;;;;;7.47;6.65;;;15.60;50.80;;;;;;4064144;29;20058;-65
2022/03/09 11:09:55;;;;;;;8.90;6.55;;;15.60;51.60;;;;;;4049010;29;20103;-64
2022/03/09 11:12:17;;;;;;;7.55;6.72;;;15.60;51.30;;;;;;4048771;29;20222;-65
2022/03/09 11:14:40;;;;;;;8.13;6.97;;;15.60;51.10;;;;;;4049266;29;20140;-65
2022/03/09 11:17:02;;;;;;;8.15;6.70;;;15.60;50.90;;;;;;4048973;29;20052;-64
2022/03/09 11:19:25;;;;;;;8.48;6.88;;;15.60;51.00;;;;;;4064554;29;20440;-64
2022/03/09 11:21:48;;;;;;;8.48;6.72;;;15.60;50.60;;;;;;4064478;29;20483;-65
2022/03/09 11:24:15;;;;;;;9.35;6.95;;;15.60;50.50;;;;;;4064776;29;20063;-65
2022/03/09 11:26:41;;;;;;;7.53;6.70;;;15.70;50.20;;;;;;4050525;29;20475;-65
2022/03/09 11:29:07;;;;;;;10.50;6.78;;;15.70;50.60;;;;;;4062511;29;20052;-65
2022/03/09 11:31:48;;;;;;;10.90;7.05;;;15.70;50.50;;;;;;4053437;29;20490;-65
2022/03/09 11:34:33;;;;;;;12.00;7.15;;;15.70;50.40;;;;;;4047641;29;20053;-62
2022/03/09 11:36:58;;;;;;;8.48;6.88;;;15.70;49.40;;;;;;4048777;29;20112;-63
2022/03/09 11:39:25;;;;;;;9.40;7.43;;;15.80;49.50;;;;;;4048284;29;20064;-64
2022/03/09 11:41:47;;;;;;;12.85;7.55;;;15.80;49.70;;;;;;4048492;29;20060;-63
2022/03/09 11:44:29;;;;;;;8.95;7.55;;;15.70;49.70;;;;;;4048471;29;20044;-63
2022/03/09 11:47:04;;;;;;;7.28;6.22;;;15.80;48.40;;;;;;4048215;29;20422;-63
2022/03/09 11:49:33;;;;;;;8.27;6.40;;;15.80;48.70;;;;;;4048748;29;20104;-64
2022/03/09 11:52:07;;;;;;;11.15;7.32;;;15.80;49.30;;;;;;4048478;29;20052;-62
2022/03/09 11:54:41;;;;;;;9.10;7.05;;;15.80;49.00;;;;;;4063143;29;20138;-63
2022/03/09 11:57:04;;;;;;;8.63;6.72;;;15.80;48.70;;;;;;4063868;29;20143;-63
2022/03/09 11:59:28;;;;;;;11.00;6.22;;;15.90;48.30;;;;;;4064004;29;20082;-63
2022/03/09 12:02:24;;;;;;;9.57;6.90;;;15.90;49.70;;;;;;4060918;29;20135;-63
2022/03/09 12:04:49;;;;;;;7.53;6.75;;;15.90;48.30;;;;;;4056683;29;20564;-62
2022/03/09 12:07:12;;;;;;;9.80;7.20;;;15.90;49.00;;;;;;4063745;29;20108;-63
2022/03/09 12:09:57;;;;;;;12.05;7.28;;;15.90;49.30;;;;;;4063954;29;20741;-63
2022/03/09 12:12:18;;;;;;;8.77;7.00;;;15.90;48.70;;;;;;4057655;29;20048;-62
2022/03/09 12:15:00;;;;;;;9.23;6.78;;;16.00;48.90;;;;;;4063986;29;20892;-62
2022/03/09 12:17:28;;;;;;;7.50;6.80;;;15.90;47.80;;;;;;4060213;29;20068;-62
2022/03/09 12:20:20;;;;;;;8.50;7.70;;;16.00;48.50;;;;;;4047416;29;20400;-62
2022/03/09 12:23:15;;;;;;;10.38;7.05;;;16.00;49.60;;;;;;4063307;29;20456;-62
2022/03/09 12:25:39;;;;;;;11.93;7.53;;;16.10;50.00;;;;;;4046509;29;20060;-63
2022/03/09 12:28:35;;;;;;;8.77;6.90;;;16.10;48.90;;;;;;4063558;29;20555;-62
2022/03/09 12:30:59;;;;;;;8.05;6.82;;;16.10;47.20;;;;;;4061337;29;20448;-62